< Typhoon 195919 1959 Season Typhoon 195921 >
Typhoon 195920 (EMMA)
General InformationTrack Information on Google Maps || Disaster Info.ResourceGoogle EarthGE AnimationAtom FeedGeoJSON
Detalied Best Track (Time Zone = UTC)
Year Month Day Hour Lat. Long. Pressure (hPa) Wind (kt) Class Image Chart
1959 11 1 00 6.0 167.0 1002 0 2 -- Chart
1959 11 1 06 6.3 166.0 1002 0 2 -- Chart
1959 11 1 12 6.5 165.0 1002 0 2 -- Chart
1959 11 1 18 6.8 164.0 1002 0 2 -- Chart
1959 11 2 00 7.0 163.0 1002 0 2 -- Chart
1959 11 2 06 7.4 162.5 1002 0 2 -- Chart
1959 11 2 12 7.8 162.0 1002 0 2 -- Chart
1959 11 2 18 8.3 161.5 1002 0 2 -- Chart
1959 11 3 00 9.0 161.0 1002 0 2 -- Chart
1959 11 3 06 9.7 160.0 1002 0 2 -- Chart
1959 11 3 12 9.8 158.0 1002 0 2 -- Chart
1959 11 3 18 10.0 156.0 1002 0 2 -- Chart
1959 11 4 00 10.8 153.9 1002 0 2 -- Chart
1959 11 4 06 11.3 152.7 1002 0 2 -- Chart
1959 11 4 12 11.5 151.8 1002 0 2 -- Chart
1959 11 4 18 11.5 151.0 1000 0 2 -- Chart
1959 11 5 00 11.5 150.0 1000 0 2 -- Chart
1959 11 5 06 11.6 149.0 998 0 2 -- Chart
1959 11 5 12 12.0 148.0 998 0 2 -- Chart
1959 11 5 18 12.5 146.9 996 0 2 -- Chart
1959 11 6 00 12.9 145.8 994 0 2 -- Chart
1959 11 6 06 13.0 144.8 992 0 2 -- Chart
1959 11 6 12 13.1 143.7 990 0 2 -- Chart
1959 11 6 18 13.4 142.6 990 0 9 -- Chart
1959 11 7 00 13.6 141.4 992 0 9 -- Chart
1959 11 7 06 13.9 140.0 995 0 9 -- Chart
1959 11 7 12 14.1 139.1 995 0 9 -- Chart
1959 11 7 18 14.2 138.2 995 0 9 -- Chart
1959 11 8 00 14.4 137.7 995 0 9 -- Chart
1959 11 8 06 14.7 137.5 995 0 9 -- Chart
1959 11 8 12 15.0 136.6 995 0 9 -- Chart
1959 11 8 18 15.2 135.2 995 0 9 -- Chart
1959 11 9 00 15.4 133.8 995 0 9 -- Chart
1959 11 9 06 15.5 132.4 992 0 9 -- Chart
1959 11 9 12 15.7 131.4 992 0 9 -- Chart
1959 11 9 18 15.8 130.4 990 0 9 -- Chart
1959 11 10 00 15.9 129.3 985 0 9 -- Chart
1959 11 10 06 16.2 128.3 980 0 9 -- Chart
1959 11 10 12 16.7 127.3 975 0 9 -- Chart
1959 11 10 18 17.3 126.4 970 0 9 -- Chart
1959 11 11 00 18.1 125.3 970 0 9 -- Chart
1959 11 11 06 19.2 125.2 965 0 9 -- Chart
1959 11 11 12 20.4 124.9 965 0 9 -- Chart
1959 11 11 18 21.2 124.5 965 0 9 -- Chart
1959 11 12 00 22.1 124.3 960 0 9 -- Chart
1959 11 12 06 23.7 124.9 960 0 9 -- Chart
1959 11 12 12 24.7 126.0 960 0 9 -- Chart
1959 11 12 18 25.8 128.2 960 0 9 -- Chart
1959 11 13 00 26.9 130.5 970 0 9 -- Chart
1959 11 13 06 27.5 133.3 980 0 9 -- Chart
1959 11 13 12 28.5 136.4 990 0 9 -- Chart
1959 11 13 18 29.2 139.7 990 0 9 -- Chart
1959 11 14 00 30.0 143.0 996 0 6 -- Chart
1959 11 14 06 30.3 146.6 998 0 6 -- Chart
1959 11 14 12 30.7 151.3 1000 0 6 -- Chart
1959 11 14 18 31.0 157.2 1000 0 6 -- Chart
1959 11 15 00 31.0 162.0 1002 0 6 -- Chart
1959 11 15 06 31.0 166.0 1004 0 6 -- Chart
1959 11 15 12 30.0 169.0 1010 0 6 -- Chart
Japan Meteorological Agency Best Track Data | Correction Date : 1989-06-01
< Typhoon 195919 1959 Season Typhoon 195921 >

Help